Time;durP1;ratioP1;P1;durP2;ratioP2;P2;SDS_P1;SDS_P2;PMS_P1;PMS_P2;Temp;Humidity;BMP_temperature;BMP_pressure;BME280_temperature;BME280_humidity;BME280_pressure;Samples;Min_cycle;Max_cycle;Signal;HPM_P1;HPM_P2
2022/09/06 00:02:30;;;;;;;6.03;4.88;;;;;;;-148.88;57.37;74865.31;5035812;28;20033;-77
2022/09/06 00:04:55;;;;;;;6.43;4.63;;;;;;;-148.88;57.21;74861.25;5036030;28;20032;-78
2022/09/06 00:07:20;;;;;;;6.38;4.75;;;;;;;-148.88;57.28;74867.34;5036373;28;20387;-78
2022/09/06 00:09:46;;;;;;;7.38;4.90;;;;;;;-148.88;57.66;74869.38;5035123;28;20128;-78
2022/09/06 00:12:11;;;;;;;8.18;4.95;;;;;;;-148.88;57.60;74861.25;5035368;28;20029;-77
2022/09/06 00:14:36;;;;;;;7.15;5.25;;;;;;;-148.88;57.87;74877.50;5036925;28;20022;-78
2022/09/06 00:17:02;;;;;;;7.32;5.25;;;;;;;-148.88;57.80;74873.44;5034274;28;20422;-77
2022/09/06 00:19:27;;;;;;;5.05;4.53;;;;;;;-148.88;57.86;74875.47;5033293;28;20029;-77
2022/09/06 00:21:52;;;;;;;8.20;5.05;;;;;;;-148.88;58.27;74885.63;5033500;28;20034;-77
2022/09/06 00:24:17;;;;;;;8.18;5.18;;;;;;;-148.88;58.34;74885.63;5034051;28;20022;-77
2022/09/06 00:26:43;;;;;;;6.18;5.20;;;;;;;-148.88;58.68;74891.72;5034160;28;20474;-78
2022/09/06 00:29:08;;;;;;;9.63;5.25;;;;;;;-148.88;59.29;74899.84;5034890;28;20100;-78
2022/09/06 00:31:34;;;;;;;5.18;4.68;;;;;;;-148.88;59.05;74901.88;5034683;28;20026;-78
2022/09/06 00:33:59;;;;;;;5.93;4.90;;;;;;;-148.88;59.37;74907.97;5035108;28;20013;-78
2022/09/06 00:36:25;;;;;;;5.40;4.82;;;;;;;-148.88;59.49;74914.06;5034744;28;20018;-78
2022/09/06 00:38:50;;;;;;;8.52;4.93;;;;;;;-148.88;59.58;74916.09;5035242;28;20025;-78
2022/09/06 00:41:16;;;;;;;7.65;4.95;;;;;;;-148.88;60.06;74926.25;5035484;28;20055;-77
2022/09/06 00:43:42;;;;;;;6.45;4.72;;;;;;;-148.88;59.69;74912.03;5035921;28;20439;-77
2022/09/06 00:46:10;;;;;;;6.70;5.25;;;;;;;-148.88;60.11;74924.22;5035770;28;20048;-78
2022/09/06 00:48:38;;;;;;;6.82;4.70;;;;;;;-148.88;59.98;74928.28;5036873;28;20040;-77
2022/09/06 00:51:06;;;;;;;8.73;5.30;;;;;;;-148.88;60.18;74934.38;5037059;28;20471;-77
2022/09/06 00:53:32;;;;;;;9.43;5.55;;;;;;;-148.88;60.81;74938.44;5036655;28;20025;-77
2022/09/06 00:55:58;;;;;;;8.15;5.00;;;;;;;-148.88;60.95;74932.34;5033165;28;20037;-77
2022/09/06 00:58:24;;;;;;;6.70;4.85;;;;;;;-148.88;60.74;74928.28;5034065;28;20037;-77
2022/09/06 01:00:50;;;;;;;8.95;4.93;;;;;;;-148.88;61.14;74930.31;5033273;28;20462;-77
2022/09/06 01:03:15;;;;;;;6.35;4.88;;;;;;;-148.88;61.05;74934.38;5038075;28;20053;-77
2022/09/06 01:05:52;;;;;;;6.70;5.13;;;;;;;-148.88;61.34;74934.38;5037281;28;20147;-77
2022/09/06 01:08:32;;;;;;;5.90;5.25;;;;;;;-148.88;61.13;74924.22;5038791;28;20026;-78
2022/09/06 01:11:14;;;;;;;5.95;5.03;;;;;;;-148.88;61.55;74942.47;5038957;28;20065;-77
2022/09/06 01:13:49;;;;;;;6.45;5.30;;;;;;;-148.88;61.55;74932.34;5039128;28;20033;-77
2022/09/06 01:16:34;;;;;;;8.85;5.60;;;;;;;-148.88;61.72;74942.47;5039080;28;20111;-77
2022/09/06 01:19:43;;;;;;;6.72;5.10;;;;;;;-148.88;61.89;74948.56;5039541;28;20025;-77
2022/09/06 01:22:08;;;;;;;7.65;5.60;;;;;;;-148.88;61.84;74952.63;5039668;28;20030;-77
2022/09/06 01:25:00;;;;;;;6.53;5.10;;;;;;;-148.88;62.02;74942.47;5039629;28;20031;-78
2022/09/06 01:27:56;;;;;;;10.18;5.85;;;;;;;-148.88;62.35;74944.53;5040221;28;20108;-77
2022/09/06 01:30:22;;;;;;;7.63;6.07;;;;;;;-148.88;62.41;74948.56;5040286;28;20112;-78
2022/09/06 01:33:08;;;;;;;9.15;5.40;;;;;;;-148.88;62.32;74946.53;5036722;28;20028;-77
2022/09/06 01:35:54;;;;;;;11.30;5.75;;;;;;;-148.88;62.92;74948.56;5036343;28;20030;-78
2022/09/06 01:38:20;;;;;;;7.63;5.50;;;;;;;-148.88;63.08;74946.53;5035572;28;20033;-77
2022/09/06 01:40:45;;;;;;;8.48;5.90;;;;;;;-148.88;62.96;74952.63;5037968;28;20499;-77
2022/09/06 01:43:17;;;;;;;7.75;5.50;;;;;;;-148.88;62.70;74952.63;5037964;28;20096;-77
2022/09/06 01:45:49;;;;;;;6.60;5.90;;;;;;;-148.88;63.08;74962.78;5037013;28;20028;-77
2022/09/06 01:48:45;;;;;;;6.18;5.57;;;;;;;-148.88;63.52;74970.91;5038438;28;20100;-77
2022/09/06 01:51:27;;;;;;;7.85;6.22;;;;;;;-148.88;63.58;74970.91;5038249;28;20108;-77
2022/09/06 01:54:05;;;;;;;8.85;6.82;;;;;;;-148.88;63.63;74960.75;5038670;28;20026;-78
2022/09/06 01:57:02;;;;;;;8.88;6.28;;;;;;;-148.88;63.67;74956.69;5039008;28;20425;-77
2022/09/06 02:00:10;;;;;;;7.30;6.18;;;;;;;-148.88;63.68;74950.59;5027545;28;20041;-77
2022/09/06 02:02:51;;;;;;;7.10;5.88;;;;;;;-148.88;63.58;74952.63;5031744;28;20044;-78
2022/09/06 02:05:36;;;;;;;9.43;6.00;;;;;;;-148.88;64.06;74972.94;5038890;28;20032;-77
2022/09/06 02:08:08;;;;;;;8.20;5.80;;;;;;;-148.88;64.23;74968.88;5039137;28;20021;-78
2022/09/06 02:10:42;;;;;;;8.15;6.30;;;;;;;-148.88;64.17;74972.94;5035766;28;20025;-77
2022/09/06 02:13:09;;;;;;;7.47;6.20;;;;;;;-148.88;64.18;74977.00;5035152;28;20392;-77
2022/09/06 02:15:41;;;;;;;7.75;6.35;;;;;;;-148.88;64.78;74993.25;5036676;28;20026;-77
2022/09/06 02:18:22;;;;;;;7.88;6.35;;;;;;;-148.88;64.74;74985.13;5037370;28;20021;-77
2022/09/06 02:20:51;;;;;;;7.53;6.28;;;;;;;-148.88;64.74;74987.16;5035511;28;20036;-77
2022/09/06 02:23:18;;;;;;;8.70;6.28;;;;;;;-148.88;64.71;74981.06;5037008;28;20028;-77
2022/09/06 02:25:51;;;;;;;8.38;6.40;;;;;;;-148.88;65.26;74995.28;5037616;28;20032;-77
2022/09/06 02:28:17;;;;;;;7.40;6.70;;;;;;;-148.88;65.31;74989.19;5038109;28;20028;-77
2022/09/06 02:30:48;;;;;;;8.52;6.60;;;;;;;-148.88;65.24;74987.16;5037273;28;20021;-77
2022/09/06 02:33:19;;;;;;;7.10;6.10;;;;;;;-148.88;65.33;74991.22;5036871;28;20092;-77
2022/09/06 02:35:48;;;;;;;7.40;6.18;;;;;;;-148.88;65.64;75001.38;5036678;28;20401;-77
2022/09/06 02:38:14;;;;;;;8.60;6.35;;;;;;;-148.88;65.63;74997.31;5037574;28;20064;-77
2022/09/06 02:40:41;;;;;;;7.15;6.15;;;;;;;-148.88;65.96;75001.38;5038396;28;20029;-77
2022/09/06 02:43:06;;;;;;;9.40;6.93;;;;;;;-148.88;65.98;75001.38;5036638;28;20032;-77
2022/09/06 02:45:31;;;;;;;11.13;6.80;;;;;;;-148.88;66.47;75013.56;5037883;28;20057;-77
2022/09/06 02:47:57;;;;;;;7.80;7.00;;;;;;;-148.88;66.25;75005.44;5035631;28;20048;-77
2022/09/06 02:50:22;;;;;;;8.18;6.75;;;;;;;-148.88;66.79;75009.50;5034582;28;20032;-77
2022/09/06 02:53:17;;;;;;;7.80;6.35;;;;;;;-148.88;66.56;74999.34;5035398;28;20032;-77
2022/09/06 02:55:45;;;;;;;7.03;6.32;;;;;;;-148.88;66.60;75007.47;5035821;28;20029;-77
2022/09/06 02:58:11;;;;;;;8.40;6.60;;;;;;;-148.88;66.73;75009.50;5036686;28;20021;-77
2022/09/06 03:00:37;;;;;;;8.18;6.40;;;;;;;-148.88;67.04;75005.44;5035956;28;20100;-77
2022/09/06 03:03:02;;;;;;;8.90;6.50;;;;;;;-148.88;66.97;75011.53;5036796;28;20036;-77
2022/09/06 03:05:28;;;;;;;9.00;6.53;;;;;;;-148.88;67.15;75007.47;5037093;28;20052;-77
2022/09/06 03:07:54;;;;;;;7.93;6.88;;;;;;;-148.88;67.43;75009.50;5037995;28;20037;-77
2022/09/06 03:10:21;;;;;;;7.47;6.75;;;;;;;-148.88;67.56;75013.56;5037960;28;20026;-77
2022/09/06 03:12:46;;;;;;;7.43;6.43;;;;;;;-148.88;67.82;75013.56;5038404;28;20031;-77
2022/09/06 03:15:13;;;;;;;7.63;6.55;;;;;;;-148.88;67.91;75015.59;5037348;28;20164;-77
2022/09/06 03:17:39;;;;;;;8.05;6.78;;;;;;;-148.88;68.27;75021.69;5037301;28;20029;-77
2022/09/06 03:20:05;;;;;;;7.97;7.05;;;;;;;-148.88;68.26;75015.59;5037669;28;20525;-77
2022/09/06 03:22:31;;;;;;;8.30;6.65;;;;;;;-148.88;68.21;75017.63;5037186;28;20036;-77
2022/09/06 03:24:56;;;;;;;8.98;6.75;;;;;;;-148.88;68.36;75013.56;5033612;28;20033;-77
2022/09/06 03:27:22;;;;;;;7.80;7.00;;;;;;;-148.88;68.79;75025.75;5034272;28;20033;-77
2022/09/06 03:29:48;;;;;;;9.30;6.82;;;;;;;-148.88;68.70;75017.63;5035212;28;20057;-77
2022/09/06 03:32:13;;;;;;;10.02;7.07;;;;;;;-148.88;68.70;75007.47;5035644;28;20063;-77
2022/09/06 03:34:38;;;;;;;10.55;6.88;;;;;;;-148.88;68.91;75017.63;5035813;28;20025;-77
2022/09/06 03:37:03;;;;;;;8.23;7.43;;;;;;;-148.88;68.96;75013.56;5036410;28;20017;-77
2022/09/06 03:39:29;;;;;;;10.20;8.05;;;;;;;-148.88;68.91;75005.44;5036383;28;20037;-77
2022/09/06 03:41:54;;;;;;;8.55;7.72;;;;;;;-148.88;68.85;75007.47;5036280;28;20021;-78
2022/09/06 03:44:22;;;;;;;11.05;7.28;;;;;;;-148.88;68.70;75031.84;5034494;28;20053;-78
2022/09/06 03:46:47;;;;;;;7.93;6.70;;;;;;;-148.88;69.16;75033.88;5037789;28;20476;-77
2022/09/06 03:49:13;;;;;;;7.72;7.03;;;;;;;-148.88;68.97;75015.59;5036127;28;20056;-77
2022/09/06 03:51:40;;;;;;;8.07;6.88;;;;;;;-148.88;69.31;75017.63;5033573;28;20037;-78
2022/09/06 03:54:05;;;;;;;8.68;6.50;;;;;;;-148.88;69.36;75015.59;5032498;28;20110;-77
2022/09/06 03:56:30;;;;;;;8.07;6.88;;;;;;;-148.88;69.26;75017.63;5033297;28;20115;-77
2022/09/06 03:58:55;;;;;;;8.20;7.15;;;;;;;-148.88;69.27;75015.59;5037132;28;20047;-79
2022/09/06 04:01:21;;;;;;;9.15;7.40;;;;;;;-148.88;69.61;75013.56;5041331;28;20109;-77
2022/09/06 04:03:46;;;;;;;7.45;6.65;;;;;;;-148.88;69.10;75001.38;5049886;28;20085;-76
2022/09/06 04:06:11;;;;;;;9.52;8.13;;;;;;;-148.88;69.44;74993.25;5046305;28;20491;-76
2022/09/06 04:08:37;;;;;;;8.23;7.20;;;;;;;-148.88;69.33;75001.38;5033033;28;20142;-76
2022/09/06 04:11:03;;;;;;;8.43;7.30;;;;;;;-148.88;69.46;75005.44;5033051;28;20099;-77
2022/09/06 04:13:30;;;;;;;8.45;7.47;;;;;;;-148.88;69.54;75001.38;5033501;28;20099;-77
2022/09/06 04:15:55;;;;;;;9.50;7.38;;;;;;;-148.88;69.87;75003.41;5032909;28;20025;-77
2022/09/06 04:18:20;;;;;;;9.30;7.47;;;;;;;-148.88;70.04;74999.34;5033857;28;20028;-77
2022/09/06 04:20:52;;;;;;;8.27;7.47;;;;;;;-148.88;69.84;74995.28;5033598;28;20247;-77
2022/09/06 04:23:18;;;;;;;8.35;7.05;;;;;;;-148.88;70.08;74991.22;5033823;28;20484;-77
2022/09/06 04:25:48;;;;;;;8.75;7.68;;;;;;;-148.88;70.06;74991.22;5037306;28;20036;-78
2022/09/06 04:28:14;;;;;;;8.48;7.38;;;;;;;-148.88;70.21;74987.16;5040099;28;20025;-79
2022/09/06 04:30:39;;;;;;;9.98;7.75;;;;;;;-148.88;70.23;74997.31;5041587;28;20045;-77
2022/09/06 04:33:04;;;;;;;9.48;7.55;;;;;;;-148.88;70.26;74997.31;5039859;28;20530;-78
2022/09/06 04:35:30;;;;;;;8.82;7.93;;;;;;;-148.88;70.96;75001.38;5035162;28;20033;-78
2022/09/06 04:37:59;;;;;;;11.05;7.88;;;;;;;-148.88;70.82;74993.25;5038555;28;20060;-77
2022/09/06 04:40:25;;;;;;;8.98;7.90;;;;;;;-148.88;70.91;74997.31;5038883;28;20108;-77
2022/09/06 04:42:50;;;;;;;8.77;7.65;;;;;;;-148.88;71.31;75001.38;5041020;28;20052;-78
2022/09/06 04:45:15;;;;;;;10.85;7.85;;;;;;;-148.88;71.32;75001.38;5038990;28;20026;-77
2022/09/06 04:47:41;;;;;;;10.20;7.82;;;;;;;-148.88;71.18;74999.34;5039690;28;20021;-77
2022/09/06 04:50:06;;;;;;;9.57;8.02;;;;;;;-148.88;71.54;74997.31;5040903;28;20029;-77
2022/09/06 04:52:32;;;;;;;9.18;8.27;;;;;;;-148.88;71.80;75003.41;5037197;28;20025;-77
2022/09/06 04:54:57;;;;;;;13.23;8.60;;;;;;;-148.88;71.89;75007.47;5035944;28;20018;-77
2022/09/06 04:57:22;;;;;;;10.18;8.43;;;;;;;-148.88;71.63;75001.38;5036299;28;20025;-77
2022/09/06 04:59:47;;;;;;;9.65;8.65;;;;;;;-148.88;71.82;75003.41;5035815;28;20075;-77
2022/09/06 05:02:15;;;;;;;9.70;8.65;;;;;;;-148.88;72.35;74997.31;5035833;28;20052;-77
2022/09/06 05:04:40;;;;;;;9.50;8.50;;;;;;;-148.88;72.42;74999.34;5040481;28;20022;-79
2022/09/06 05:07:07;;;;;;;10.35;8.30;;;;;;;-148.88;72.33;74993.25;5036908;28;20022;-77
2022/09/06 05:09:33;;;;;;;8.90;7.82;;;;;;;-148.88;72.42;74989.19;5036054;28;20116;-77
2022/09/06 05:12:00;;;;;;;10.75;8.30;;;;;;;-148.88;72.68;74989.19;5036009;28;20068;-77
2022/09/06 05:14:26;;;;;;;8.90;8.00;;;;;;;-148.88;72.49;74985.13;5035831;28;20017;-77
2022/09/06 05:16:51;;;;;;;9.90;8.68;;;;;;;-148.88;72.47;74981.06;5035926;28;20036;-77
2022/09/06 05:19:17;;;;;;;8.88;7.97;;;;;;;-148.88;72.39;74970.91;5035956;28;20029;-77
2022/09/06 05:21:43;;;;;;;10.05;8.38;;;;;;;-148.88;72.34;74960.75;5036145;28;20053;-77
2022/09/06 05:24:08;;;;;;;9.30;8.02;;;;;;;-148.88;72.19;74964.81;5035884;28;20060;-77
2022/09/06 05:26:33;;;;;;;13.40;8.55;;;;;;;-148.88;72.25;74960.75;5034480;28;20025;-77
2022/09/06 05:28:59;;;;;;;13.50;8.90;;;;;;;-148.88;72.17;74962.78;5036010;28;20037;-77
2022/09/06 05:31:29;;;;;;;11.02;7.85;;;;;;;-148.88;72.48;74960.75;5035543;28;20546;-77
2022/09/06 05:33:56;;;;;;;9.68;8.05;;;;;;;-148.88;72.59;74968.88;5035602;28;20480;-77
2022/09/06 05:36:22;;;;;;;9.43;7.78;;;;;;;-148.88;72.28;74964.81;5035466;28;20025;-77
2022/09/06 05:38:52;;;;;;;11.00;8.45;;;;;;;-148.88;72.13;74968.88;5035497;28;20080;-77
2022/09/06 05:41:17;;;;;;;11.13;8.32;;;;;;;-148.88;72.15;74964.81;5035730;28;20025;-77
2022/09/06 05:43:43;;;;;;;9.55;7.78;;;;;;;-148.88;72.55;74964.81;5035497;28;20498;-77
2022/09/06 05:46:09;;;;;;;10.02;8.10;;;;;;;-148.88;72.77;74968.88;5035269;28;20039;-77
2022/09/06 05:48:34;;;;;;;10.35;7.75;;;;;;;-148.88;73.07;74964.81;5035596;28;20032;-77
2022/09/06 05:51:04;;;;;;;12.38;8.18;;;;;;;-148.88;73.19;74966.84;5035516;28;20022;-77
2022/09/06 05:53:35;;;;;;;12.85;8.30;;;;;;;-148.88;73.17;74970.91;5034880;28;20484;-77
2022/09/06 05:56:00;;;;;;;8.73;7.85;;;;;;;-148.88;73.07;74977.00;5034730;28;20029;-75
2022/09/06 05:58:25;;;;;;;8.90;8.00;;;;;;;-148.88;73.19;74972.94;5034903;28;20028;-76
2022/09/06 06:00:51;;;;;;;9.50;8.50;;;;;;;-148.88;73.46;74983.09;5034781;28;20018;-75
2022/09/06 06:03:16;;;;;;;8.55;7.75;;;;;;;-148.88;73.54;74974.97;5034807;28;20104;-75
2022/09/06 06:05:46;;;;;;;9.95;7.57;;;;;;;-148.88;73.67;74989.19;5034597;28;20033;-74
2022/09/06 06:08:11;;;;;;;9.43;8.27;;;;;;;-148.88;73.85;74989.19;5034503;28;20103;-75
2022/09/06 06:10:38;;;;;;;9.02;8.13;;;;;;;-148.88;73.73;74985.13;5033265;28;20057;-75
2022/09/06 06:13:03;;;;;;;10.20;8.10;;;;;;;-148.88;73.84;74983.09;5034480;28;20155;-75
2022/09/06 06:15:28;;;;;;;11.25;8.20;;;;;;;-148.88;73.96;74981.06;5034361;28;20025;-75
2022/09/06 06:17:54;;;;;;;10.80;8.48;;;;;;;-148.88;73.92;74974.97;5034439;28;20383;-75
2022/09/06 06:20:19;;;;;;;12.20;8.20;;;;;;;-148.88;73.73;74968.88;5034377;28;20025;-75
2022/09/06 06:22:44;;;;;;;12.82;8.05;;;;;;;-148.88;73.88;74964.81;5034472;28;20444;-75
2022/09/06 06:25:10;;;;;;;9.38;7.47;;;;;;;-148.88;74.01;74964.81;5034712;28;20029;-75
2022/09/06 06:27:35;;;;;;;10.25;8.30;;;;;;;-148.88;74.08;74956.69;5034213;28;20032;-75
2022/09/06 06:30:01;;;;;;;12.75;7.72;;;;;;;-148.88;74.17;74956.69;5032873;28;20025;-75
2022/09/06 06:32:26;;;;;;;10.35;8.15;;;;;;;-148.88;74.27;74952.63;5034074;28;20108;-75
2022/09/06 06:34:51;;;;;;;9.35;8.23;;;;;;;-148.88;74.23;74960.75;5033873;28;20528;-75
2022/09/06 06:37:17;;;;;;;9.57;8.60;;;;;;;-148.88;74.22;74960.75;5034096;28;20032;-75
2022/09/06 06:39:42;;;;;;;9.45;7.97;;;;;;;-148.88;74.24;74958.72;5034086;28;20037;-75
2022/09/06 06:42:08;;;;;;;9.73;8.77;;;;;;;-148.88;73.94;74952.63;5033991;28;20492;-76
2022/09/06 06:44:33;;;;;;;11.40;9.30;;;;;;;-148.88;73.83;74952.63;5033952;28;20083;-75
2022/09/06 06:47:00;;;;;;;10.23;8.80;;;;;;;-148.88;73.68;74948.56;5034035;28;20063;-75
2022/09/06 06:49:27;;;;;;;12.25;8.80;;;;;;;-148.88;73.52;74938.44;5034803;28;20025;-75
2022/09/06 06:51:52;;;;;;;11.20;8.98;;;;;;;-148.88;73.89;74930.31;5033973;28;20024;-75
2022/09/06 06:54:18;;;;;;;9.82;8.82;;;;;;;-148.88;73.82;74928.28;5033902;28;20029;-75
2022/09/06 06:56:44;;;;;;;9.38;8.30;;;;;;;-148.88;73.65;74922.19;5033843;28;20383;-74
2022/09/06 06:59:10;;;;;;;10.63;8.02;;;;;;;-148.88;73.75;74924.22;5033333;28;20108;-75
2022/09/06 07:01:35;;;;;;;9.80;8.80;;;;;;;-148.88;73.69;74916.09;5032230;28;20025;-75
2022/09/06 07:04:01;;;;;;;10.73;9.25;;;;;;;-148.88;73.59;74916.09;5033657;28;20025;-75
2022/09/06 07:06:27;;;;;;;9.98;8.98;;;;;;;-148.88;73.83;74914.06;5033405;28;20030;-75
2022/09/06 07:08:52;;;;;;;15.50;9.20;;;;;;;-148.88;73.67;74910.00;5033459;28;20040;-75
2022/09/06 07:11:18;;;;;;;11.55;9.10;;;;;;;-148.88;73.71;74905.94;5033651;28;20495;-76
2022/09/06 07:13:44;;;;;;;12.57;9.00;;;;;;;-148.88;73.52;74907.97;5033450;28;20052;-75
2022/09/06 07:16:20;;;;;;;13.10;8.90;;;;;;;-148.88;73.59;74903.91;5033282;28;20021;-75
2022/09/06 07:18:46;;;;;;;12.13;9.02;;;;;;;-148.88;73.47;74891.72;5033559;28;20040;-76
2022/09/06 07:21:16;;;;;;;10.02;8.18;;;;;;;-148.88;73.25;74891.72;5031938;28;20400;-75
2022/09/06 07:23:43;;;;;;;12.15;8.90;;;;;;;-148.88;73.18;74887.66;5033414;28;20029;-75
2022/09/06 07:26:25;;;;;;;14.75;8.70;;;;;;;-148.88;73.02;74883.59;5029743;28;20048;-74
2022/09/06 07:28:59;;;;;;;12.10;9.05;;;;;;;-148.88;73.14;74891.72;5033042;28;20025;-75
2022/09/06 07:31:25;;;;;;;12.50;8.80;;;;;;;-148.88;73.68;74879.53;5032923;28;20033;-74
2022/09/06 07:33:51;;;;;;;11.23;8.98;;;;;;;-148.88;75.18;74887.66;5032914;28;20026;-75
2022/09/06 07:36:16;;;;;;;17.42;9.48;;;;;;;-148.88;75.41;74889.69;5032902;28;20028;-75
2022/09/06 07:38:42;;;;;;;16.33;9.40;;;;;;;-148.88;76.14;74887.66;5032896;28;20453;-75
2022/09/06 07:41:09;;;;;;;10.85;8.82;;;;;;;-148.88;76.57;74883.59;5032987;28;20025;-75
2022/09/06 07:43:35;;;;;;;11.70;9.73;;;;;;;-148.88;76.99;74891.72;5032817;28;20482;-75
2022/09/06 07:46:04;;;;;;;11.82;9.35;;;;;;;-148.88;76.70;74883.59;5032635;28;20467;-74
2022/09/06 07:48:31;;;;;;;11.23;9.93;;;;;;;-148.88;77.36;74889.69;5032771;28;20029;-75
2022/09/06 07:51:03;;;;;;;11.90;9.35;;;;;;;-148.88;76.69;74895.78;5032685;28;20447;-75
2022/09/06 07:53:28;;;;;;;18.98;9.88;;;;;;;-148.88;77.00;74893.75;5032819;28;20021;-75
2022/09/06 07:55:53;;;;;;;13.25;9.23;;;;;;;-148.88;76.34;74893.75;5032524;28;20184;-75
2022/09/06 07:58:18;;;;;;;11.88;8.82;;;;;;;-148.88;76.27;74893.75;5031523;28;20025;-75
2022/09/06 08:00:44;;;;;;;13.55;9.80;;;;;;;-148.88;76.29;74877.50;5032432;28;20028;-75
2022/09/06 08:03:12;;;;;;;12.60;9.48;;;;;;;-148.88;76.67;74875.47;5032446;28;20033;-75
2022/09/06 08:05:37;;;;;;;11.32;10.02;;;;;;;-148.88;77.28;74875.47;5032427;28;20426;-75
2022/09/06 08:08:03;;;;;;;13.55;9.80;;;;;;;-148.88;77.85;74871.41;5032657;28;20480;-75
2022/09/06 08:10:28;;;;;;;11.32;9.77;;;;;;;-148.88;78.25;74867.34;5033169;28;20039;-75
2022/09/06 08:12:53;;;;;;;10.18;8.85;;;;;;;-148.88;77.37;74861.25;5036284;28;20379;-75
2022/09/06 08:15:20;;;;;;;10.80;9.18;;;;;;;-148.88;76.05;74869.38;5036596;28;20033;-75
2022/09/06 08:17:49;;;;;;;11.60;9.07;;;;;;;-148.88;75.50;74857.19;5036628;28;20029;-76
2022/09/06 08:20:15;;;;;;;11.70;9.13;;;;;;;-148.88;75.50;74842.97;5036594;28;20049;-76
2022/09/06 08:22:41;;;;;;;14.95;9.30;;;;;;;-148.88;76.50;74849.06;5036612;28;20083;-76
2022/09/06 08:25:06;;;;;;;17.45;9.23;;;;;;;-148.88;76.88;74840.94;5036453;28;20025;-76
2022/09/06 08:27:32;;;;;;;12.45;9.23;;;;;;;-148.88;77.24;74840.94;5036480;28;20499;-76
2022/09/06 08:29:57;;;;;;;9.85;8.40;;;;;;;-148.88;77.71;74830.78;5036638;28;20022;-76
2022/09/06 08:32:23;;;;;;;9.98;8.98;;;;;;;-148.88;77.31;74830.78;5036722;28;20492;-76
2022/09/06 08:34:48;;;;;;;12.60;9.70;;;;;;;-148.88;77.47;74826.72;5036240;28;20028;-76
2022/09/06 08:37:13;;;;;;;13.77;10.27;;;;;;;-148.88;78.38;74806.44;5035005;28;20414;-76
2022/09/06 08:39:39;;;;;;;17.80;11.68;;;;;;;-148.88;79.98;74806.44;5036087;28;20029;-76
2022/09/06 08:42:07;;;;;;;14.50;10.95;;;;;;;-148.88;79.93;74808.47;5036321;28;20033;-76
2022/09/06 08:44:37;;;;;;;14.90;12.07;;;;;;;-148.88;79.83;74796.28;5036126;28;20052;-76
2022/09/06 08:47:07;;;;;;;12.35;11.05;;;;;;;-148.88;79.71;74794.25;5036133;28;20510;-76
2022/09/06 08:49:36;;;;;;;14.13;11.38;;;;;;;-148.88;80.26;74788.16;5036123;28;20036;-76
2022/09/06 08:52:02;;;;;;;13.43;11.02;;;;;;;-148.88;79.02;74769.88;5036007;28;20030;-76
2022/09/06 08:55:24;;;;;;;14.37;11.20;;;;;;;-148.88;77.98;74749.56;5034717;28;20106;-76
2022/09/06 08:57:58;;;;;;;14.85;10.88;;;;;;;-148.88;76.37;74751.59;5020392;28;20266;-77
2022/09/06 09:00:24;;;;;;;12.02;10.60;;;;;;;-148.88;75.84;74743.47;5034765;28;20048;-76
2022/09/06 09:02:58;;;;;;;16.38;11.35;;;;;;;-148.88;74.65;74741.44;5034529;28;20438;-76
2022/09/06 09:05:28;;;;;;;16.63;10.88;;;;;;;-148.88;74.42;74741.44;5035935;28;20037;-76
2022/09/06 09:08:25;;;;;;;13.45;10.60;;;;;;;-148.88;74.36;74721.13;5036160;28;20030;-76
2022/09/06 09:10:59;;;;;;;12.77;10.40;;;;;;;-148.88;74.58;74708.94;5036109;28;20023;-76
2022/09/06 09:13:39;;;;;;;15.23;11.73;;;;;;;-148.88;74.07;74676.47;5036070;28;20551;-76
2022/09/06 09:16:05;;;;;;;14.32;10.13;;;;;;;-148.88;70.81;74627.72;5035859;28;20116;-76
2022/09/06 09:18:35;;;;;;;15.90;10.95;;;;;;;-148.88;70.55;74593.22;5035819;28;20029;-76
2022/09/06 09:21:01;;;;;;;13.25;9.73;;;;;;;-148.88;67.76;74538.38;5035801;28;20047;-77
2022/09/06 09:23:28;;;;;;;12.40;9.23;;;;;;;-148.88;67.69;74503.84;5034049;28;20387;-77
2022/09/06 09:25:58;;;;;;;13.73;9.80;;;;;;;-148.88;66.60;74481.53;5035544;28;20029;-77
2022/09/06 09:28:24;;;;;;;12.02;9.55;;;;;;;-148.88;64.47;74473.41;5034394;28;20380;-76
2022/09/06 09:30:52;;;;;;;11.10;8.80;;;;;;;-148.88;64.35;74453.09;5035337;28;20418;-76
2022/09/06 09:33:37;;;;;;;11.98;9.07;;;;;;;-148.88;62.77;74412.47;5034642;28;20021;-76
2022/09/06 09:36:20;;;;;;;9.75;8.75;;;;;;;-148.88;62.55;74384.06;5035358;28;20488;-76
2022/09/06 09:38:48;;;;;;;12.63;8.00;;;;;;;-148.88;61.37;74355.63;5035490;28;20163;-77
2022/09/06 09:41:32;;;;;;;11.38;8.18;;;;;;;-148.88;59.39;74331.25;5035381;28;20060;-76
2022/09/06 09:44:08;;;;;;;;;;;;;;;-148.88;59.56;74306.91;5035540;28;20507;-76
2022/09/06 09:46:49;;;;;;;11.00;8.32;;;;;;;-148.88;58.73;74290.66;5051097;22;19921;-88
2022/09/06 09:49:24;;;;;;;10.45;7.82;;;;;;;-148.88;57.69;74254.09;5014496;28;20054;-89
2022/09/06 09:52:40;;;;;;;11.43;7.80;;;;;;;-148.88;55.71;74213.50;5014255;28;20120;-89
2022/09/06 09:55:09;;;;;;;12.13;8.70;;;;;;;-148.88;55.68;74185.06;5016393;28;20022;-88
2022/09/06 09:57:53;;;;;;;11.02;7.75;;;;;;;-148.88;55.24;74148.53;5014098;28;20397;-88
2022/09/06 10:00:41;;;;;;;11.73;8.20;;;;;;;-148.88;54.17;74178.97;5014871;28;20025;-89
2022/09/06 10:03:35;;;;;;;9.18;7.28;;;;;;;-148.88;53.89;74114.00;5015083;28;20030;-89
2022/09/06 10:06:03;;;;;;;10.80;7.60;;;;;;;-148.88;53.21;74079.50;5010308;28;20037;-89
2022/09/06 10:08:40;;;;;;;9.00;8.07;;;;;;;-148.88;50.81;74085.59;5015234;28;20109;-88
2022/09/06 10:11:40;;;;;;;9.00;7.70;;;;;;;-148.88;51.86;74063.25;5014465;28;20049;-87
2022/09/06 10:14:41;;;;;;;13.75;7.80;;;;;;;-148.88;51.48;74034.81;5013996;28;20443;-88
2022/09/06 10:17:18;;;;;;;7.68;6.50;;;;;;;-148.88;49.96;74002.34;5015607;28;20100;-84
2022/09/06 10:19:51;;;;;;;9.07;7.03;;;;;;;-148.88;49.26;73975.94;5015762;28;20017;-88
2022/09/06 10:22:28;;;;;;;8.35;7.07;;;;;;;-148.88;48.17;73971.88;5015607;28;20033;-88
2022/09/06 10:25:05;;;;;;;8.35;6.00;;;;;;;-148.88;48.55;73931.28;5014809;28;20026;-88
2022/09/06 10:27:56;;;;;;;6.53;5.85;;;;;;;-148.88;47.09;73919.09;5013388;28;20116;-88
2022/09/06 10:30:21;;;;;;;7.28;6.35;;;;;;;-148.88;46.48;73876.47;5013381;28;20026;-88
2022/09/06 10:33:07;;;;;;;11.95;7.20;;;;;;;-148.88;46.47;73913.00;5014610;28;20084;-88
2022/09/06 10:35:58;;;;;;;8.18;5.95;;;;;;;-148.88;45.84;73884.59;5014221;28;20032;-88
2022/09/06 10:38:52;;;;;;;10.18;6.60;;;;;;;-148.88;45.64;73878.50;5014242;28;20022;-89
2022/09/06 10:41:31;;;;;;;8.05;5.97;;;;;;;-148.88;44.56;73839.91;5014582;28;20038;-88
2022/09/06 10:44:35;;;;;;;5.95;5.28;;;;;;;-148.88;43.28;73807.44;5013417;28;20037;-88
2022/09/06 10:47:18;;;;;;;6.78;4.93;;;;;;;-148.88;41.82;73795.25;5013351;28;20496;-88
2022/09/06 10:49:51;;;;;;;5.50;4.85;;;;;;;-148.88;41.01;73811.50;5013647;28;20083;-88
2022/09/06 10:52:33;;;;;;;11.15;5.20;;;;;;;-148.88;41.49;73768.88;5013805;28;20037;-88
2022/09/06 10:55:10;;;;;;;11.35;4.80;;;;;;;-148.88;39.33;73770.91;5013680;28;20498;-87
2022/09/06 10:58:03;;;;;;;6.18;4.53;;;;;;;-148.88;39.48;73726.22;5012980;28;20029;-88
2022/09/06 11:00:55;;;;;;;6.00;4.82;;;;;;;-148.88;40.09;73734.34;5008829;28;20038;-88
2022/09/06 11:03:31;;;;;;;7.07;4.95;;;;;;;-148.88;39.87;73746.53;5013849;28;20384;-88
2022/09/06 11:06:07;;;;;;;7.65;4.40;;;;;;;-148.88;40.10;73772.91;5013050;28;20025;-89
2022/09/06 11:08:56;;;;;;;5.05;4.40;;;;;;;-148.88;39.44;73720.13;5014051;28;20029;-88
2022/09/06 11:11:39;;;;;;;7.07;4.97;;;;;;;-148.88;40.20;73699.84;5014514;28;20527;-88
2022/09/06 11:14:14;;;;;;;6.10;4.38;;;;;;;-148.88;38.38;73701.88;5013273;28;20032;-88
2022/09/06 11:17:08;;;;;;;7.78;5.10;;;;;;;-148.88;38.63;73722.16;5013190;28;20059;-89
2022/09/06 11:19:59;;;;;;;6.63;4.60;;;;;;;-148.88;38.62;73728.25;5009737;28;20034;-88
2022/09/06 11:22:57;;;;;;;5.93;3.90;;;;;;;-148.88;38.09;73707.97;5013807;28;20034;-89
2022/09/06 11:25:26;;;;;;;7.30;4.50;;;;;;;-148.88;37.73;73663.28;5014171;28;20025;-88
2022/09/06 11:27:59;;;;;;;9.07;4.40;;;;;;;-148.88;37.60;73645.03;5012879;28;20510;-89
2022/09/06 11:30:29;;;;;;;6.13;4.28;;;;;;;-148.88;37.03;73614.56;5012553;28;20029;-89
2022/09/06 11:33:22;;;;;;;6.22;4.32;;;;;;;-148.88;37.01;73640.97;5012728;28;20068;-89